Time;durP1;ratioP1;P1;durP2;ratioP2;P2;SDS_P1;SDS_P2;PMS_P1;PMS_P2;Temp;Humidity;BMP_temperature;BMP_pressure;BME280_temperature;BME280_humidity;BME280_pressure;Samples;Min_cycle;Max_cycle;Signal;HPM_P1;HPM_P2
2021/03/25 00:01:15;;;;;;;11.15;7.57;;;5.40;99.90;;;;;;474764;250;27444;-75
2021/03/25 00:03:16;;;;;;;13.82;7.35;;;5.30;99.90;;;;;;474730;250;27628;-74
2021/03/25 00:05:17;;;;;;;13.13;8.18;;;5.30;99.90;;;;;;474741;250;27449;-74
2021/03/25 00:07:19;;;;;;;14.15;7.55;;;5.30;99.90;;;;;;474759;250;27441;-74
2021/03/25 00:09:20;;;;;;;16.10;8.63;;;5.30;99.90;;;;;;474757;250;27523;-74
2021/03/25 00:11:21;;;;;;;11.38;7.70;;;5.20;99.90;;;;;;474782;250;27980;-75
2021/03/25 00:13:22;;;;;;;12.68;8.15;;;5.20;99.90;;;;;;474761;250;27908;-74
2021/03/25 00:15:24;;;;;;;11.35;7.43;;;5.20;99.90;;;;;;474771;250;27503;-75
2021/03/25 00:17:25;;;;;;;12.63;8.02;;;5.20;99.90;;;;;;474764;250;27445;-75
2021/03/25 00:19:26;;;;;;;12.02;7.32;;;5.20;99.90;;;;;;474773;250;27478;-74
2021/03/25 00:21:27;;;;;;;12.57;7.25;;;5.20;99.90;;;;;;474778;250;27564;-74
2021/03/25 00:23:29;;;;;;;18.25;8.85;;;5.20;99.90;;;;;;474765;250;27433;-74
2021/03/25 00:25:30;;;;;;;13.35;8.55;;;5.20;99.90;;;;;;474800;250;27902;-75
2021/03/25 00:27:31;;;;;;;10.13;6.97;;;5.20;99.90;;;;;;474789;250;28849;-75
2021/03/25 00:29:32;;;;;;;12.90;7.30;;;5.20;99.90;;;;;;474763;250;27517;-74
2021/03/25 00:31:34;;;;;;;14.20;8.27;;;5.30;99.90;;;;;;474773;250;27457;-75
2021/03/25 00:33:35;;;;;;;18.37;8.30;;;5.40;99.90;;;;;;474758;250;27437;-74
2021/03/25 00:35:36;;;;;;;13.88;8.55;;;5.40;99.90;;;;;;474778;250;27457;-74
2021/03/25 00:37:37;;;;;;;12.65;7.87;;;5.50;99.90;;;;;;474772;250;27527;-75
2021/03/25 00:39:39;;;;;;;14.40;8.43;;;5.50;99.90;;;;;;474746;250;28108;-74
2021/03/25 00:41:40;;;;;;;16.33;8.15;;;5.50;99.90;;;;;;474779;250;27987;-74
2021/03/25 00:43:41;;;;;;;13.13;7.80;;;5.60;99.90;;;;;;474786;250;27503;-74
2021/03/25 00:45:42;;;;;;;14.73;9.15;;;5.60;99.90;;;;;;474760;250;27445;-74
2021/03/25 00:47:44;;;;;;;20.25;9.43;;;5.60;99.90;;;;;;474759;250;27453;-74
2021/03/25 00:49:45;;;;;;;17.00;9.57;;;5.70;99.90;;;;;;474773;250;27523;-73
2021/03/25 00:51:46;;;;;;;16.25;8.50;;;5.80;99.90;;;;;;474777;250;27441;-74
2021/03/25 00:53:48;;;;;;;16.67;8.90;;;5.90;99.90;;;;;;474773;250;27916;-75
2021/03/25 00:55:49;;;;;;;12.77;8.90;;;6.00;99.90;;;;;;474763;250;28007;-75
2021/03/25 00:57:50;;;;;;;13.18;8.40;;;6.00;99.90;;;;;;474786;250;27537;-74
2021/03/25 00:59:52;;;;;;;16.75;9.73;;;6.00;99.90;;;;;;474757;250;27532;-74
2021/03/25 01:01:53;;;;;;;13.93;8.25;;;6.10;99.90;;;;;;474764;250;27519;-75
2021/03/25 01:03:54;;;;;;;15.65;8.77;;;6.10;99.90;;;;;;474779;250;27439;-75
2021/03/25 01:05:55;;;;;;;16.42;9.35;;;6.10;99.90;;;;;;474746;250;27881;-74
2021/03/25 01:07:56;;;;;;;18.67;9.80;;;6.20;99.90;;;;;;474762;250;27895;-74
2021/03/25 01:09:58;;;;;;;17.42;9.32;;;6.30;99.90;;;;;;474751;250;27428;-73
2021/03/25 01:11:59;;;;;;;17.90;9.88;;;6.40;99.90;;;;;;474799;250;27527;-74
2021/03/25 01:14:00;;;;;;;13.02;7.93;;;6.40;99.90;;;;;;474774;250;27540;-75
2021/03/25 01:16:01;;;;;;;15.93;9.23;;;6.50;99.90;;;;;;474761;250;27445;-75
2021/03/25 01:18:03;;;;;;;16.48;8.80;;;6.50;99.90;;;;;;474788;250;27899;-74
2021/03/25 01:20:04;;;;;;;21.42;9.73;;;6.50;99.90;;;;;;474757;250;27915;-75
2021/03/25 01:22:05;;;;;;;17.33;8.40;;;6.50;99.90;;;;;;474795;250;27516;-74
2021/03/25 01:24:06;;;;;;;16.75;9.02;;;6.60;99.90;;;;;;474798;250;27456;-74
2021/03/25 01:26:08;;;;;;;16.02;8.23;;;6.60;99.90;;;;;;474755;250;27519;-75
2021/03/25 01:28:09;;;;;;;14.20;8.60;;;6.60;99.90;;;;;;474764;250;27479;-74
2021/03/25 01:30:10;;;;;;;17.02;8.63;;;6.50;99.90;;;;;;474763;250;29284;-75
2021/03/25 01:32:11;;;;;;;13.48;8.27;;;6.50;99.90;;;;;;474799;250;27528;-74
2021/03/25 01:34:13;;;;;;;15.57;8.77;;;6.40;99.90;;;;;;474795;250;27456;-75
2021/03/25 01:36:14;;;;;;;14.60;9.10;;;6.40;99.90;;;;;;474794;250;27520;-75
2021/03/25 01:38:15;;;;;;;19.10;9.18;;;6.50;99.90;;;;;;474828;250;27420;-74
2021/03/25 01:40:17;;;;;;;14.75;8.80;;;6.50;99.90;;;;;;474813;250;27993;-75
2021/03/25 01:42:18;;;;;;;15.10;8.43;;;6.40;99.90;;;;;;474793;250;28003;-75
2021/03/25 01:44:19;;;;;;;15.05;9.00;;;6.40;99.90;;;;;;474787;250;27540;-74
2021/03/25 01:46:20;;;;;;;21.27;9.02;;;6.40;99.90;;;;;;474758;250;27492;-74
2021/03/25 01:48:22;;;;;;;14.00;8.60;;;6.40;99.90;;;;;;474774;250;27433;-74
2021/03/25 01:50:23;;;;;;;14.63;8.15;;;6.40;99.90;;;;;;474781;250;27528;-75
2021/03/25 01:52:24;;;;;;;15.25;8.35;;;6.40;99.90;;;;;;474752;250;28046;-74
2021/03/25 01:54:25;;;;;;;15.38;9.20;;;6.40;99.90;;;;;;474773;250;27552;-73
2021/03/25 01:56:27;;;;;;;15.40;7.72;;;6.40;99.90;;;;;;474768;250;27472;-74
2021/03/25 01:58:28;;;;;;;11.20;7.03;;;6.40;99.90;;;;;;474783;250;27531;-74
2021/03/25 02:00:29;;;;;;;13.05;6.75;;;6.40;99.90;;;;;;474783;250;27445;-75
2021/03/25 02:02:30;;;;;;;11.57;7.93;;;6.40;99.90;;;;;;474774;250;27444;-74
2021/03/25 02:04:32;;;;;;;12.25;7.95;;;6.40;99.90;;;;;;474775;250;28012;-74
2021/03/25 02:06:33;;;;;;;12.82;7.32;;;6.40;99.90;;;;;;474734;250;27516;-75
2021/03/25 02:08:34;;;;;;;13.45;8.43;;;6.50;99.90;;;;;;474774;250;27433;-74
2021/03/25 02:10:36;;;;;;;16.33;8.60;;;6.50;99.90;;;;;;474772;250;27633;-74
2021/03/25 02:12:37;;;;;;;14.13;8.60;;;6.50;99.90;;;;;;474754;250;27587;-75
2021/03/25 02:14:38;;;;;;;14.43;8.43;;;6.40;99.90;;;;;;474775;250;27927;-74
2021/03/25 02:16:39;;;;;;;18.55;9.20;;;6.40;99.90;;;;;;474768;250;27907;-75
2021/03/25 02:18:40;;;;;;;18.45;9.18;;;6.40;99.90;;;;;;474776;250;27536;-75
2021/03/25 02:20:42;;;;;;;13.43;8.07;;;6.40;99.90;;;;;;474781;250;27519;-75
2021/03/25 02:22:43;;;;;;;14.25;7.80;;;6.20;99.90;;;;;;474807;250;27441;-74
2021/03/25 02:24:44;;;;;;;15.32;7.40;;;6.20;99.90;;;;;;474758;250;27440;-75
2021/03/25 02:26:46;;;;;;;13.98;8.52;;;6.30;99.90;;;;;;474751;250;28352;-74
2021/03/25 02:28:47;;;;;;;13.68;8.70;;;6.30;99.90;;;;;;474770;250;27441;-74
2021/03/25 02:30:48;;;;;;;14.00;8.60;;;6.20;99.90;;;;;;474776;250;27457;-74
2021/03/25 02:32:49;;;;;;;14.60;8.25;;;6.10;99.90;;;;;;474758;250;27641;-74
2021/03/25 02:34:51;;;;;;;13.73;8.35;;;6.00;99.90;;;;;;474785;250;27460;-75
2021/03/25 02:36:52;;;;;;;14.48;9.10;;;6.00;99.90;;;;;;474756;250;28015;-74
2021/03/25 02:38:53;;;;;;;15.48;8.50;;;5.90;99.90;;;;;;474773;250;27899;-74
2021/03/25 02:40:54;;;;;;;13.73;8.68;;;6.00;99.90;;;;;;474782;250;27433;-75
2021/03/25 02:42:56;;;;;;;12.48;7.43;;;5.90;99.90;;;;;;474754;250;27436;-75
2021/03/25 02:44:57;;;;;;;15.05;8.35;;;5.90;99.90;;;;;;474764;250;27644;-74
2021/03/25 02:46:58;;;;;;;19.87;8.55;;;5.80;99.90;;;;;;474762;250;27456;-74
2021/03/25 02:48:59;;;;;;;13.48;8.35;;;5.80;99.90;;;;;;474758;250;28021;-75
2021/03/25 02:51:01;;;;;;;16.55;8.88;;;5.80;99.90;;;;;;474768;250;28255;-74
2021/03/25 02:53:02;;;;;;;14.73;7.95;;;5.70;99.90;;;;;;474749;250;27513;-73
2021/03/25 02:55:03;;;;;;;13.52;8.20;;;5.70;99.90;;;;;;474780;250;27465;-74
2021/03/25 02:57:04;;;;;;;16.87;8.73;;;5.60;99.90;;;;;;474774;250;27428;-74
2021/03/25 02:59:06;;;;;;;14.52;8.15;;;5.60;99.90;;;;;;474777;250;27437;-75
2021/03/25 03:01:07;;;;;;;12.90;7.78;;;5.50;99.90;;;;;;474777;250;27545;-74
2021/03/25 03:03:08;;;;;;;15.60;7.90;;;5.50;99.90;;;;;;474787;250;27900;-74
2021/03/25 03:05:09;;;;;;;13.05;7.80;;;5.50;99.90;;;;;;474793;250;27895;-74
2021/03/25 03:07:11;;;;;;;16.65;8.40;;;5.50;99.90;;;;;;474796;250;27517;-74
2021/03/25 03:09:12;;;;;;;14.40;7.90;;;5.50;99.90;;;;;;474764;250;27444;-74
2021/03/25 03:11:13;;;;;;;16.05;7.78;;;5.50;99.90;;;;;;474774;249;27505;-75
2021/03/25 03:13:14;;;;;;;13.52;7.40;;;5.50;99.90;;;;;;474774;250;27433;-74
2021/03/25 03:15:16;;;;;;;14.18;7.30;;;5.50;99.90;;;;;;474761;250;27447;-75
2021/03/25 03:17:17;;;;;;;15.10;8.15;;;5.60;99.90;;;;;;474753;250;28091;-75
2021/03/25 03:19:18;;;;;;;13.65;8.13;;;5.70;99.90;;;;;;474774;250;27435;-75
2021/03/25 03:21:20;;;;;;;13.65;7.60;;;5.70;99.90;;;;;;474783;250;27447;-73
2021/03/25 03:23:21;;;;;;;15.00;8.38;;;5.70;99.90;;;;;;474744;250;27527;-74
2021/03/25 03:25:22;;;;;;;14.25;6.78;;;5.80;99.90;;;;;;474758;250;27524;-75
2021/03/25 03:27:23;;;;;;;17.00;8.32;;;5.80;99.90;;;;;;474767;250;27435;-74
2021/03/25 03:29:25;;;;;;;13.82;7.10;;;5.90;99.90;;;;;;474739;250;28084;-75
2021/03/25 03:31:26;;;;;;;17.12;8.23;;;5.90;99.90;;;;;;474770;250;27845;-74
2021/03/25 03:33:27;;;;;;;13.65;7.78;;;5.80;99.90;;;;;;474742;250;27529;-75
2021/03/25 03:35:28;;;;;;;11.40;7.20;;;5.80;99.90;;;;;;474730;250;27440;-74
2021/03/25 03:37:30;;;;;;;15.55;8.30;;;5.90;99.90;;;;;;474755;250;27441;-74
2021/03/25 03:39:31;;;;;;;11.50;7.40;;;5.90;99.90;;;;;;474760;250;27453;-74
2021/03/25 03:41:32;;;;;;;11.80;7.03;;;5.90;99.90;;;;;;474784;250;28368;-74
2021/03/25 03:43:33;;;;;;;13.45;7.78;;;5.90;99.90;;;;;;474743;250;27931;-74
2021/03/25 03:45:35;;;;;;;12.10;7.87;;;6.00;99.90;;;;;;474772;250;27512;-75
2021/03/25 03:47:36;;;;;;;12.10;7.32;;;5.90;99.90;;;;;;474765;250;27440;-74
2021/03/25 03:49:37;;;;;;;14.40;7.97;;;5.90;99.90;;;;;;474741;250;27539;-74
2021/03/25 03:51:38;;;;;;;13.60;7.60;;;5.80;99.90;;;;;;474793;250;27436;-74
2021/03/25 03:53:40;;;;;;;16.58;8.80;;;5.80;99.90;;;;;;474779;250;27912;-75
2021/03/25 03:55:41;;;;;;;12.30;7.87;;;5.70;99.90;;;;;;474772;250;27991;-74
2021/03/25 03:57:42;;;;;;;14.68;7.68;;;5.70;99.90;;;;;;474770;250;27540;-74
2021/03/25 03:59:43;;;;;;;12.00;7.90;;;5.60;99.90;;;;;;474770;250;27452;-74
2021/03/25 04:01:45;;;;;;;13.95;7.03;;;5.60;99.90;;;;;;474774;250;27440;-75
2021/03/25 04:03:46;;;;;;;12.05;7.25;;;5.50;99.90;;;;;;474752;250;27449;-74
2021/03/25 04:05:47;;;;;;;12.32;7.47;;;5.50;99.90;;;;;;474749;250;27449;-74
2021/03/25 04:07:48;;;;;;;11.77;7.35;;;5.50;99.90;;;;;;474774;250;27900;-74
2021/03/25 04:09:50;;;;;;;10.90;7.20;;;5.40;99.90;;;;;;474770;250;27975;-77
2021/03/25 04:11:51;;;;;;;13.18;7.07;;;5.30;99.90;;;;;;474770;250;27508;-74
2021/03/25 04:13:52;;;;;;;10.60;7.00;;;5.30;99.90;;;;;;474765;250;27445;-74
2021/03/25 04:15:54;;;;;;;13.10;7.35;;;5.30;99.90;;;;;;474780;250;27536;-74
2021/03/25 04:17:55;;;;;;;10.77;7.03;;;5.30;99.90;;;;;;474789;250;27532;-74
2021/03/25 04:19:56;;;;;;;12.15;7.45;;;5.30;99.90;;;;;;474775;250;27541;-74
2021/03/25 04:21:57;;;;;;;12.95;7.62;;;5.30;99.90;;;;;;474765;250;28003;-74
2021/03/25 04:23:59;;;;;;;11.93;6.72;;;5.30;99.90;;;;;;474782;250;27433;-74
2021/03/25 04:26:00;;;;;;;11.35;6.50;;;5.20;99.90;;;;;;474784;250;27537;-75
2021/03/25 04:28:01;;;;;;;10.40;6.70;;;5.20;99.90;;;;;;474811;250;27442;-74
2021/03/25 04:30:02;;;;;;;13.40;6.93;;;5.20;99.90;;;;;;474784;250;27513;-74
2021/03/25 04:32:04;;;;;;;14.70;7.10;;;5.20;99.90;;;;;;474801;250;27521;-74
2021/03/25 04:34:05;;;;;;;8.20;6.07;;;5.20;99.90;;;;;;474797;250;27462;-75
2021/03/25 04:36:06;;;;;;;13.40;7.60;;;5.30;99.90;;;;;;474754;250;28239;-75
2021/03/25 04:38:07;;;;;;;10.00;6.15;;;5.40;99.90;;;;;;474778;250;28002;-75
2021/03/25 04:40:09;;;;;;;14.68;6.87;;;5.40;99.90;;;;;;474761;250;27421;-75
2021/03/25 04:42:10;;;;;;;10.23;6.50;;;5.40;99.90;;;;;;474788;250;27460;-74
2021/03/25 04:44:11;;;;;;;11.73;7.03;;;5.40;99.90;;;;;;474759;250;27536;-75
2021/03/25 04:46:12;;;;;;;10.90;6.12;;;5.50;99.90;;;;;;474736;250;27545;-74
2021/03/25 04:48:14;;;;;;;12.23;6.70;;;5.40;99.90;;;;;;474770;250;27515;-74
2021/03/25 04:50:15;;;;;;;10.90;6.85;;;5.40;99.90;;;;;;474759;250;27932;-74
2021/03/25 04:52:16;;;;;;;9.77;6.20;;;5.40;99.90;;;;;;474789;250;27962;-74
2021/03/25 04:54:17;;;;;;;10.57;6.57;;;5.40;99.90;;;;;;474768;250;27435;-74
2021/03/25 04:56:19;;;;;;;12.23;7.50;;;5.50;99.90;;;;;;474763;250;27452;-74
2021/03/25 04:58:20;;;;;;;9.15;5.95;;;5.50;99.90;;;;;;474773;249;27542;-74
2021/03/25 05:00:21;;;;;;;10.27;5.85;;;5.50;99.90;;;;;;474694;250;27437;-74
2021/03/25 05:02:22;;;;;;;10.52;5.70;;;5.50;99.90;;;;;;474703;250;27449;-74
2021/03/25 05:04:24;;;;;;;8.02;5.43;;;5.50;99.90;;;;;;474703;250;28009;-74
2021/03/25 05:06:25;;;;;;;9.48;5.90;;;5.50;99.90;;;;;;474694;250;28010;-74
2021/03/25 05:08:26;;;;;;;10.60;6.25;;;5.50;99.90;;;;;;474718;250;27508;-74
2021/03/25 05:10:28;;;;;;;9.57;6.35;;;5.50;99.90;;;;;;474730;250;27477;-74
2021/03/25 05:12:29;;;;;;;12.20;6.60;;;5.60;99.90;;;;;;474768;249;27544;-74
2021/03/25 05:14:30;;;;;;;11.95;6.82;;;5.70;99.90;;;;;;474770;250;27543;-75
2021/03/25 05:16:31;;;;;;;12.52;7.53;;;5.70;99.90;;;;;;474777;250;27432;-74
2021/03/25 05:18:33;;;;;;;11.12;6.43;;;5.70;99.90;;;;;;474779;250;28000;-75
2021/03/25 05:20:34;;;;;;;11.55;6.22;;;5.70;99.90;;;;;;474754;250;27916;-75
2021/03/25 05:22:35;;;;;;;9.73;6.00;;;5.80;99.90;;;;;;474766;250;27449;-75
2021/03/25 05:24:36;;;;;;;11.07;6.30;;;5.70;99.90;;;;;;474786;250;27437;-75
2021/03/25 05:26:38;;;;;;;10.43;6.07;;;5.80;99.90;;;;;;474751;250;27444;-75
2021/03/25 05:28:39;;;;;;;9.38;6.60;;;5.80;99.90;;;;;;474769;250;27449;-74
2021/03/25 05:30:40;;;;;;;9.45;6.55;;;5.80;99.90;;;;;;474735;250;27520;-74
2021/03/25 05:32:41;;;;;;;9.05;5.95;;;5.80;99.90;;;;;;474769;250;27960;-74
2021/03/25 05:34:43;;;;;;;10.57;6.85;;;5.80;99.90;;;;;;474767;250;28022;-75
2021/03/25 05:36:44;;;;;;;14.48;7.07;;;5.80;99.90;;;;;;474756;250;27511;-75
2021/03/25 05:38:45;;;;;;;10.10;6.40;;;5.90;99.90;;;;;;474773;250;27452;-74
2021/03/25 05:40:46;;;;;;;13.93;6.60;;;5.80;99.90;;;;;;474751;250;27437;-74
2021/03/25 05:42:48;;;;;;;13.98;7.65;;;5.90;99.90;;;;;;474786;250;27524;-74
2021/03/25 05:44:49;;;;;;;10.18;7.22;;;5.90;99.90;;;;;;474780;250;27444;-75
2021/03/25 05:46:50;;;;;;;10.52;5.75;;;5.90;99.90;;;;;;474758;250;27881;-74
2021/03/25 05:48:51;;;;;;;9.75;6.10;;;5.90;99.90;;;;;;474796;250;27432;-74
2021/03/25 05:50:53;;;;;;;9.93;6.20;;;5.90;99.90;;;;;;474817;246;27445;-76
2021/03/25 05:52:54;;;;;;;10.07;5.78;;;5.90;99.90;;;;;;474807;250;27524;-75
2021/03/25 05:54:55;;;;;;;10.32;6.25;;;6.00;99.90;;;;;;474793;250;27433;-75
2021/03/25 05:56:56;;;;;;;12.30;6.03;;;6.10;99.90;;;;;;474801;250;27451;-74
2021/03/25 05:58:58;;;;;;;9.50;6.35;;;6.20;99.90;;;;;;474786;250;27877;-75
2021/03/25 06:00:59;;;;;;;9.23;5.93;;;6.20;99.90;;;;;;474767;250;29353;-75
2021/03/25 06:03:00;;;;;;;10.02;6.15;;;6.20;99.90;;;;;;474759;250;27516;-74
2021/03/25 06:05:01;;;;;;;8.57;5.30;;;6.20;99.90;;;;;;474768;250;27530;-75
2021/03/25 06:07:03;;;;;;;11.55;7.05;;;6.20;99.90;;;;;;474767;250;27433;-75
2021/03/25 06:09:04;;;;;;;10.13;6.32;;;6.20;99.90;;;;;;474766;250;27499;-75
2021/03/25 06:11:05;;;;;;;9.30;5.70;;;6.30;99.90;;;;;;474780;250;27456;-75
2021/03/25 06:13:06;;;;;;;11.43;6.20;;;6.30;99.90;;;;;;474754;250;29066;-75
2021/03/25 06:15:08;;;;;;;10.82;6.05;;;6.30;99.90;;;;;;474781;250;27922;-74
2021/03/25 06:17:09;;;;;;;9.40;6.15;;;6.40;99.90;;;;;;474750;250;27536;-74
2021/03/25 06:19:10;;;;;;;10.55;6.43;;;6.40;99.90;;;;;;474780;250;27457;-73
2021/03/25 06:21:12;;;;;;;12.25;6.60;;;6.50;99.90;;;;;;474770;250;27536;-75
2021/03/25 06:23:13;;;;;;;14.80;6.30;;;6.50;99.90;;;;;;474776;250;27461;-75
2021/03/25 06:25:14;;;;;;;10.98;6.85;;;6.60;99.90;;;;;;474752;250;29316;-75
2021/03/25 06:27:15;;;;;;;11.90;6.05;;;6.70;99.90;;;;;;474762;250;28028;-74
2021/03/25 06:29:17;;;;;;;9.52;6.68;;;6.80;99.90;;;;;;474755;250;27427;-75
2021/03/25 06:31:18;;;;;;;10.07;6.47;;;6.90;99.90;;;;;;474773;250;27555;-74
2021/03/25 06:33:19;;;;;;;7.45;5.82;;;6.90;99.90;;;;;;474775;250;27836;-74
2021/03/25 06:35:20;;;;;;;9.23;6.10;;;7.00;99.90;;;;;;474764;250;27448;-75
2021/03/25 06:37:22;;;;;;;12.17;6.90;;;7.00;99.90;;;;;;474749;250;29010;-74
2021/03/25 06:39:23;;;;;;;9.93;6.10;;;7.00;99.90;;;;;;474771;250;28031;-75
2021/03/25 06:41:24;;;;;;;11.50;6.70;;;7.00;99.90;;;;;;474767;250;28822;-74
2021/03/25 06:43:25;;;;;;;9.75;5.68;;;7.10;99.90;;;;;;474760;250;28528;-74
2021/03/25 06:45:27;;;;;;;10.80;6.20;;;7.20;99.90;;;;;;474812;250;28081;-75
2021/03/25 06:47:28;;;;;;;12.63;6.97;;;7.30;99.90;;;;;;474761;250;28010;-73
2021/03/25 06:49:29;;;;;;;10.10;6.80;;;7.40;99.90;;;;;;474757;250;28890;-74
2021/03/25 06:51:30;;;;;;;11.57;6.60;;;7.40;99.90;;;;;;474795;250;27432;-74
2021/03/25 06:53:32;;;;;;;10.10;6.00;;;7.40;99.90;;;;;;474751;250;28030;-75
2021/03/25 06:55:33;;;;;;;8.73;5.90;;;7.50;99.90;;;;;;474772;250;27668;-73
2021/03/25 06:57:34;;;;;;;11.43;6.73;;;7.50;99.90;;;;;;474812;250;27981;-75
2021/03/25 06:59:35;;;;;;;9.03;6.17;;;7.60;99.90;;;;;;474780;250;28008;-76
2021/03/25 07:01:37;;;;;;;10.50;6.17;;;7.60;99.90;;;;;;474778;250;27771;-74
2021/03/25 07:03:38;;;;;;;11.00;6.67;;;7.70;99.90;;;;;;474755;250;28537;-74
2021/03/25 07:05:39;;;;;;;11.87;6.43;;;7.70;99.90;;;;;;474786;250;28488;-74
2021/03/25 07:07:40;;;;;;;11.20;6.37;;;7.70;99.90;;;;;;474775;250;27879;-75
2021/03/25 07:09:42;;;;;;;9.63;6.20;;;7.70;99.90;;;;;;474775;250;27580;-77
2021/03/25 07:11:43;;;;;;;16.83;8.00;;;7.70;99.90;;;;;;474781;250;27977;-75
2021/03/25 07:13:45;;;;;;;13.17;6.83;;;7.70;99.90;;;;;;474821;250;27919;-75
2021/03/25 07:15:45;;;;;;;11.87;6.47;;;7.70;99.90;;;;;;472214;245;27791;-76
2021/03/25 07:17:47;;;;;;;12.73;7.00;;;7.70;99.90;;;;;;466828;249;27859;-74
2021/03/25 07:19:48;;;;;;;14.67;6.77;;;7.70;99.90;;;;;;483251;246;27956;-75
2021/03/25 07:21:49;;;;;;;13.60;7.10;;;7.70;99.90;;;;;;475637;250;28448;-77
2021/03/25 07:23:50;;;;;;;13.10;7.90;;;7.70;99.90;;;;;;482905;246;28396;-76
2021/03/25 07:25:52;;;;;;;10.73;6.77;;;7.70;99.90;;;;;;482928;246;28201;-77
2021/03/25 07:27:53;;;;;;;11.80;7.30;;;7.70;99.90;;;;;;482941;246;27847;-77
2021/03/25 07:29:54;;;;;;;13.07;7.97;;;7.70;99.90;;;;;;482908;246;27850;-75
2021/03/25 07:31:55;;;;;;;12.63;7.00;;;7.70;99.90;;;;;;482937;246;27830;-76
2021/03/25 07:33:57;;;;;;;10.23;6.77;;;7.70;99.90;;;;;;477862;234;28078;-75
2021/03/25 07:35:58;;;;;;;12.17;7.20;;;7.80;99.90;;;;;;495659;240;27880;-75
2021/03/25 07:37:59;;;;;;;16.10;7.70;;;7.80;99.90;;;;;;495590;240;27975;-76
2021/03/25 07:40:00;;;;;;;11.87;7.30;;;7.80;99.90;;;;;;495711;240;27949;-75
2021/03/25 07:42:03;;;;;;;14.97;7.17;;;7.90;99.90;;;;;;495685;240;27826;-75
2021/03/25 07:44:03;;;;;;;13.60;7.60;;;7.90;99.90;;;;;;495692;240;27879;-77
2021/03/25 07:46:04;;;;;;;12.20;7.20;;;7.90;99.90;;;;;;495676;240;28354;-75
2021/03/25 07:48:05;;;;;;;16.10;7.67;;;8.00;99.90;;;;;;495712;240;28438;-76
2021/03/25 07:50:07;;;;;;;12.93;7.90;;;8.00;99.90;;;;;;495713;240;28418;-76
2021/03/25 07:52:08;;;;;;;12.60;7.50;;;8.10;99.90;;;;;;495691;240;28294;-75
2021/03/25 07:54:09;;;;;;;14.87;7.40;;;8.10;99.90;;;;;;495729;240;27976;-75
2021/03/25 07:56:10;;;;;;;14.43;8.33;;;8.20;99.90;;;;;;495739;240;27391;-76
2021/03/25 07:58:12;;;;;;;19.13;9.53;;;8.20;99.90;;;;;;495735;240;27379;-76
2021/03/25 08:00:13;;;;;;;18.10;9.40;;;8.30;99.90;;;;;;495757;240;27626;-74
2021/03/25 08:02:14;;;;;;;15.43;8.80;;;8.30;99.90;;;;;;495725;240;28059;-75
2021/03/25 08:04:15;;;;;;;16.20;9.00;;;8.40;99.90;;;;;;495736;240;27843;-77
2021/03/25 08:06:17;;;;;;;16.10;8.60;;;8.50;99.90;;;;;;495747;240;28312;-74
2021/03/25 08:08:18;;;;;;;19.30;9.60;;;8.60;99.90;;;;;;495714;240;28299;-74
2021/03/25 08:10:19;;;;;;;18.70;10.17;;;8.60;99.90;;;;;;495736;240;27845;-75
2021/03/25 08:12:20;;;;;;;16.33;9.53;;;8.60;99.90;;;;;;495729;240;27852;-75
2021/03/25 08:14:22;;;;;;;13.30;9.00;;;8.70;99.90;;;;;;495713;240;27868;-77
2021/03/25 08:16:23;;;;;;;18.10;10.20;;;8.70;99.90;;;;;;495734;240;27860;-75
2021/03/25 08:18:24;;;;;;;17.90;10.27;;;8.80;99.90;;;;;;495698;240;28361;-75
2021/03/25 08:20:26;;;;;;;21.67;10.93;;;8.80;99.90;;;;;;495742;240;27963;-74
2021/03/25 08:24:37;;;;;;;20.60;11.43;;;8.90;99.90;;;;;;485876;237;28359;-75
2021/03/25 08:26:38;;;;;;;20.03;10.40;;;8.90;99.90;;;;;;474705;249;28352;-78
2021/03/25 08:28:40;;;;;;;19.60;10.93;;;8.90;99.90;;;;;;468103;254;27561;-76
2021/03/25 08:30:41;;;;;;;22.20;11.70;;;9.00;99.90;;;;;;485664;245;27961;-77
2021/03/25 08:32:42;;;;;;;17.00;10.73;;;9.00;99.90;;;;;;474713;249;27911;-74
2021/03/25 08:34:43;;;;;;;20.40;11.00;;;9.00;99.90;;;;;;468108;254;27757;-78
2021/03/25 08:36:45;;;;;;;21.33;11.17;;;9.10;99.90;;;;;;485714;245;28114;-77
2021/03/25 08:38:46;;;;;;;18.77;11.30;;;9.20;99.90;;;;;;474704;249;27616;-75
2021/03/25 08:40:47;;;;;;;18.57;10.70;;;9.30;99.90;;;;;;468116;254;28343;-76
2021/03/25 08:42:48;;;;;;;22.03;11.33;;;9.30;99.90;;;;;;485706;245;28524;-74
2021/03/25 08:44:50;;;;;;;22.60;12.40;;;9.30;99.90;;;;;;474726;249;28410;-74
2021/03/25 08:46:51;;;;;;;27.13;14.33;;;9.30;99.90;;;;;;468094;254;28033;-77
2021/03/25 08:48:52;;;;;;;25.17;13.27;;;9.40;99.90;;;;;;485681;245;27976;-74
2021/03/25 08:50:53;;;;;;;21.63;13.67;;;9.40;99.90;;;;;;474682;250;28074;-77
2021/03/25 08:52:55;;;;;;;23.67;12.67;;;9.40;99.90;;;;;;468107;254;28324;-75
2021/03/25 08:54:59;;;;;;;21.53;13.40;;;9.50;99.90;;;;;;485662;245;27901;-74
2021/03/25 08:56:57;;;;;;;22.60;12.97;;;9.50;99.90;;;;;;474675;250;28088;-75
2021/03/25 08:58:58;;;;;;;27.57;14.00;;;9.50;99.90;;;;;;468074;254;27908;-74
2021/03/25 09:01:00;;;;;;;28.27;15.77;;;9.50;99.90;;;;;;485039;243;28390;-74
2021/03/25 09:03:01;;;;;;;28.53;15.30;;;9.50;99.90;;;;;;483660;243;27928;-77
2021/03/25 09:05:02;;;;;;;32.43;16.83;;;9.60;99.90;;;;;;469787;252;27919;-73
2021/03/25 09:07:03;;;;;;;28.97;16.07;;;9.60;99.90;;;;;;471947;252;27720;-76
2021/03/25 09:09:05;;;;;;;30.70;16.03;;;9.60;99.90;;;;;;473329;247;27900;-75
2021/03/25 09:11:06;;;;;;;27.07;16.50;;;9.60;99.90;;;;;;465647;254;27844;-74
2021/03/25 09:13:07;;;;;;;31.63;16.40;;;9.60;99.90;;;;;;465970;249;27551;-76
2021/03/25 09:15:08;;;;;;;29.30;16.00;;;9.70;99.90;;;;;;463081;254;28039;-73
2021/03/25 09:17:10;;;;;;;27.93;15.73;;;9.80;99.90;;;;;;464228;248;28162;-74
2021/03/25 09:19:11;;;;;;;30.30;15.90;;;9.90;99.90;;;;;;477999;246;28793;-73
2021/03/25 09:21:12;;;;;;;30.67;16.73;;;10.00;99.90;;;;;;463203;250;29847;-76
2021/03/25 09:23:13;;;;;;;33.67;17.70;;;10.10;99.90;;;;;;472591;251;28012;-76
2021/03/25 09:25:15;;;;;;;37.07;18.90;;;10.10;99.90;;;;;;470457;251;27929;-77
2021/03/25 09:27:16;;;;;;;32.43;17.83;;;10.10;99.90;;;;;;470049;252;27954;-75
2021/03/25 09:29:17;;;;;;;37.23;19.73;;;10.10;99.90;;;;;;486248;244;27874;-75
2021/03/25 09:31:18;;;;;;;33.30;18.30;;;10.30;99.90;;;;;;478535;248;28088;-74
2021/03/25 09:33:20;;;;;;;32.37;17.63;;;10.30;99.90;;;;;;476126;250;28363;-75
2021/03/25 09:35:21;;;;;;;31.60;17.50;;;10.40;99.90;;;;;;476152;250;28308;-75
2021/03/25 09:37:23;;;;;;;32.30;17.10;;;10.40;99.90;;;;;;476178;250;27962;-74
2021/03/25 09:39:24;;;;;;;34.03;17.17;;;10.50;99.90;;;;;;476171;244;28117;-78
2021/03/25 09:41:25;;;;;;;40.20;20.37;;;10.60;99.90;;;;;;476138;250;27992;-74
2021/03/25 09:43:26;;;;;;;37.23;20.40;;;10.60;99.90;;;;;;476163;250;28066;-74
2021/03/25 09:45:27;;;;;;;37.90;22.27;;;10.60;99.90;;;;;;476156;250;28004;-75
2021/03/25 09:47:29;;;;;;;39.80;21.03;;;10.50;99.90;;;;;;476156;250;28188;-74
2021/03/25 09:49:31;;;;;;;40.57;23.57;;;10.50;99.90;;;;;;476182;250;28432;-76
2021/03/25 09:51:31;;;;;;;39.20;21.63;;;10.50;99.90;;;;;;476183;250;28209;-74
2021/03/25 09:53:32;;;;;;;45.93;23.23;;;10.40;99.90;;;;;;476191;250;28117;-74
2021/03/25 09:55:34;;;;;;;37.60;21.53;;;10.50;99.90;;;;;;476203;250;27995;-75
2021/03/25 09:57:35;;;;;;;42.50;22.43;;;10.60;99.90;;;;;;476161;247;27978;-75
2021/03/25 09:59:36;;;;;;;41.83;22.23;;;10.70;99.90;;;;;;476178;246;28109;-77
2021/03/25 10:01:37;;;;;;;38.37;22.17;;;10.80;99.90;;;;;;476176;250;28632;-74
2021/03/25 10:03:39;;;;;;;37.03;20.80;;;10.80;99.90;;;;;;476126;250;28669;-74
2021/03/25 10:05:40;;;;;;;37.97;21.17;;;10.80;99.90;;;;;;476187;250;27971;-75
2021/03/25 10:07:41;;;;;;;37.77;21.80;;;10.80;99.90;;;;;;476146;250;27873;-74
2021/03/25 10:09:42;;;;;;;46.40;22.50;;;10.80;99.90;;;;;;476152;250;28082;-75
2021/03/25 10:14:05;;;;;;;39.78;23.62;;;10.90;99.90;;;;;;506352;233;46819;-74
2021/03/25 10:16:06;;;;;;;38.90;22.87;;;11.00;99.90;;;;;;503041;236;27473;-79
2021/03/25 10:18:08;;;;;;;36.00;20.73;;;;;;;;;;503034;236;28171;-80
2021/03/25 10:20:10;;;;;;;37.73;22.03;;;10.90;99.90;;;;;;503008;236;27511;-76
2021/03/25 10:22:11;;;;;;;43.53;23.03;;;10.90;99.90;;;;;;503005;236;28091;-79
2021/03/25 10:24:12;;;;;;;38.70;21.53;;;10.90;99.90;;;;;;503003;236;28398;-79
2021/03/25 10:26:13;;;;;;;43.97;22.53;;;11.00;99.90;;;;;;503034;236;28091;-77
2021/03/25 10:28:15;;;;;;;35.17;20.97;;;11.10;99.90;;;;;;503052;236;28185;-78
2021/03/25 10:30:16;;;;;;;42.80;23.60;;;11.20;99.90;;;;;;503003;236;28078;-78
2021/03/25 10:32:17;;;;;;;37.40;21.07;;;11.20;99.90;;;;;;503041;236;28809;-79
2021/03/25 10:34:19;;;;;;;35.93;20.80;;;11.20;99.90;;;;;;503012;236;28780;-78